Etusivu
METAR-TAF:

METAR-TAF

Lentoasemat :

Córdoba, Argentiina

Leveyspiiri: 31-19S, Pituuspiiri: 064-13W, korkeus merenpinnasta: 484 m

Tämänhetkinen sää

Tämä raportti tehtiin 22 minuuttia sitten, kello 15.00 UTC
Tuuli 4 kn etelästä/kaakosta
Lämpötila 21°C
Kosteus 35%
Ilmanpaine 1016 hPa
Näkyvyys 10 km tai enemmän
ei pilviä alle 1500 m:ssä eikä cumulonimbus-pilviä

METAR: SACO 201500Z 16004KT CAVOK 21/05 Q1016 NOSIG

Aika: 12:22 (15:22 UTC)

Sääennuste

Tämä raportti tehtiin 4 tuntia ja 22 minuuttia sitten, kello 11.00 UTC
Ennuste voimassa 20. päivästä klo 12 UTC - 21. päivään klo 12 UTC
Tuuli 10 kn koillisesta
Näkyvyys 10 km tai enemmän
ei pilviä alle 1500 m:ssä eikä cumulonimbus-pilviä

TAF: SACO 201100Z 2012/2112 05010KT CAVOK TX22/2018Z TN09/2110Z

Säähavainnot ja -ennusteet yli 4000 lentoasemalta (METAR- ja TAF-raportit).

Käytössä olevat sääasemat on merkitty karttaan keltaisilla ja punaisilla pisteillä.

Aseta hiiri pisteen päälle nähdäksesi sääaseman nimen.

Klikkaa sitten nähdäksesi säähavainnot ja -ennusteet.

Kartan vaihtaminen: klikkaa mustalla rastilla varustettuja vihreitä pisteitä, niin voit zoomata sisään; viivalla varustettua vihreää pistettä, niin voit zoomata ulos tai vihreitä nuolia, niin pääset viereisille kartoille.


METAR-TAF: